NVIDIA Gross Margin 2006-2021 | NVDA

Current and historical gross margin for NVIDIA (NVDA) over the last 10 years. The current gross profit margin for NVIDIA as of January 31, 2021 is %.
NVIDIA Gross Margin Historical Data
Date TTM Revenue TTM Gross Profit Gross Margin
2021-01-31 $16.68B $10.40B 62.34%
2020-10-31 $14.78B $9.25B 62.62%
2020-07-31 $13.07B $8.21B 62.84%
2020-04-30 $11.78B $7.48B 63.47%
2020-01-31 $10.92B $6.77B 61.99%
2019-10-31 $10.02B $5.96B 59.49%
2019-07-31 $10.19B $5.97B 58.57%
2019-04-30 $10.73B $6.40B 59.64%
2019-01-31 $11.72B $7.17B 61.21%
2018-10-31 $12.42B $7.77B 62.51%
2018-07-31 $11.88B $7.41B 62.41%
2018-04-30 $10.98B $6.74B 61.36%
2018-01-31 $9.71B $5.82B 59.93%
2017-10-31 $8.98B $5.32B 59.31%
2017-07-31 $8.34B $4.94B 59.18%
2017-04-30 $7.54B $4.46B 59.16%
2017-01-31 $6.91B $4.06B 58.80%
2016-10-31 $6.14B $3.55B 57.84%
2016-07-31 $5.44B $3.10B 57.01%
2016-04-30 $5.16B $2.91B 56.33%
2016-01-31 $5.01B $2.81B 56.11%
2015-10-31 $4.86B $2.72B 55.99%
2015-07-31 $4.78B $2.66B 55.71%
2015-04-30 $4.73B $2.65B 55.98%
2015-01-31 $4.68B $2.60B 55.51%
2014-10-31 $4.58B $2.52B 55.04%
2014-07-31 $4.40B $2.43B 55.09%
2014-04-30 $4.28B $2.35B 55.00%
2014-01-31 $4.13B $2.27B 54.92%
2013-10-31 $4.09B $2.24B 54.61%
2013-07-31 $4.24B $2.29B 53.92%
2013-04-30 $4.31B $2.28B 52.97%
2013-01-31 $4.28B $2.23B 52.03%
2012-10-31 $4.13B $2.13B 51.65%
2012-07-31 $3.99B $2.05B 51.43%
2012-04-30 $3.96B $2.04B 51.38%
2012-01-31 $4.00B $2.06B 51.45%
2011-10-31 $3.93B $1.99B 50.70%
2011-07-31 $3.71B $1.83B 49.29%
2011-04-30 $3.50B $1.44B 41.02%
2011-01-31 $3.54B $1.41B 39.74%
2010-10-31 $3.64B $1.42B 39.05%
2010-07-31 $3.70B $1.42B 38.43%
2010-04-30 $3.66B $1.44B 39.41%
2010-01-31 $3.33B $1.18B 35.42%
2009-10-31 $2.83B $0.88B 31.19%
2009-07-31 $2.82B $0.86B 30.39%
2009-04-30 $2.94B $0.85B 28.95%
2009-01-31 $3.43B $1.18B 34.31%
2008-10-31 $4.15B $1.58B 38.17%
2008-07-31 $4.37B $1.73B 39.66%
2008-04-30 $4.41B $2.01B 45.50%
2008-01-31 $4.10B $1.87B 45.63%
2007-10-31 $3.77B $1.71B 45.20%
2007-07-31 $3.48B $1.52B 43.81%
2007-04-30 $3.23B $1.39B 43.07%
2007-01-31 $3.07B $1.30B 42.38%
2006-10-31 $2.83B $1.17B 41.42%
2006-07-31 $2.59B $1.06B 41.13%
2006-04-30 $2.47B $0.99B 39.98%
2006-01-31 $2.38B $0.91B 38.30%
2005-10-31 $2.31B $0.85B 36.70%
Sector Industry Market Cap Revenue
Computer and Technology Semiconductor - General $396.147B $16.675B
NVIDIA Corporation is the worldwide leader in graphics processors and media communications devices. The NVIDIA? Tesla? accelerated computing platform gives modern data centers the power to accelerate both artificial intelligence and high-performance computing workloads. NVIDIA? DGX? Systems are built on the new, revolutionary NVIDIA Volta? GPU platform. Powered by NVIDIA? Tesla? GPUs and NVIDIA NVLink?, the HGX reference architecture standardizes the design of data centers accelerating AI in the cloud-from autonomous driving and personalized healthcare to superhuman voice recognition. NVIDIA GPU Cloud (NGC) is a GPU-accelerated platform that runs everywhere. Data scientists and researchers can now rapidly build, train, and deploy neural network models to address some of the most complicated AI challenges. Their researchers operate as a think tank, accelerating advances in product technologies, including AI innovations like facial animations and light transport.
Stock Name Country Market Cap PE Ratio
Intel (INTC) United States $263.684B 12.19
Texas Instruments (TXN) United States $176.621B 32.15
STMicroelectronics (STM) Switzerland $35.520B 32.22
SUMCO CORP ADR (SUOPY) Japan $7.316B 30.83
Thk (THKLY) Japan $4.814B 0.00
Amtech Systems (ASYS) United States $0.156B 0.00